Geraldine, AL

5:32 AM CDT on September 30, 2014 (GMT -0500)
Rock Creek Bloodhounds | Change Station
CLOSE
Current Station
Personal Weather Station
Location: Fort Payne, AL
Elevation: 1162 ft
Nearby Weather Stations
Active Advisory: Special Statement Active Notice: Public Information Statement

Elev 1162 ft 34.41 °N, 85.88 °W | Updated 0 second ago

Overcast
Overcast
62.8 °F
Feels Like 62.8 °F
N
0.0
Wind Variable Wind from SSE
Gusts 0.0 mph

Today
High -- | Low -- °F
--% Chance of Precip.
Yesterday
High -- | Low -- °F
Precip. -- in
6:37 AM 6:29 PM
Waxing Crescent, 35% visible
Pressure 29.96 in
Visibility 7.0 miles
Clouds Overcast 600 ft
Dew Point 60 °F
Humidity 91%
Rainfall 0.00 in
Snow Depth Not available.
UV 0 out of 12
Pollen 4.70 out of 12
Air Quality Not available.
Flu Activity Not available.
METAR K8A0 301015Z AUTO 00000KT 7SM OVC006 18/18 A2996 RMK AO2

More Conditions Fewer Conditions

Pressure 29.96 in
Visibility 7.0 miles
Clouds Overcast 600 ft
Dew Point 60 °F
Humidity 91%
Rainfall 0.00 in
Snow Depth Not available.
UV 0 out of 12
Pollen 4.70 out of 12
Air Quality Not available.
Flu Activity Not available.
METAR K8A0 301015Z AUTO 00000KT 7SM OVC006 18/18 A2996 RMK AO2

More Conditions Fewer Conditions

10-Day Weather Forecast

Almanac

Astronomy

Sep. 30, 2014 Rise Set
Actual Time 6:37 AM CDT 6:29 PM CDT
Civil Twilight 6:12 AM CDT 6:54 PM CDT
Nautical Twilight 5:43 AM CDT 7:23 PM CDT
Astronomical Twilight 5:14 AM CDT 7:52 PM CDT
Moon 12:33 PM CDT 11:10 PM CDT
Length of Visible Light 12h 41m
Length of Day
11h 51m
Tomorrow will be 2m 8s shorter.
Waxing Crescent, 35% of the Moon is Illuminated
Today
Waxing Crescent
Oct 1
First Quarter
Oct 8
Full
Oct 15
Last Quarter
Oct 23
New

Today's Extremes

State Highs State Lows

Community

WunderPhotos

Upload Photos

1,757,609 photos uploaded!

WunderBlogs® & News

Nearby

Snow Depth

Station Depth Elevation
No new snow has been reported.

Earthquake Activity

City Distance Mag. Time & Date
No recent earthquake activity has been reported nearby.
Minimum magnitude displayed is 2.5.

Coastal Water Temperatures

Place Temperature
No Stations Reporting

Nearby Weather Stations